Johnson Village, Colorado
Current Conditions -  °F | °C
As of 1:54 PM on Sunday 21 Dec 2014 (Local Time) from K7BM Reporting Station
Light Snow Light Snow  
Wind Chill: 22°   Ceiling: 800
Heat Index: 32°   Visibility: 0.75mi
Dew Point: 25°   Wind: 14mph
Humidity: 75%   Direction: 320°NW
Pressure: 29.76"   Gusts: 26mph
Location:  38.8913°N, 106.224°W
Report Text: K7BM 212054Z AUTO 32012G23KT 270V010 3/4SM -SN OVC008 00/M04 A2976 RMK AO2
Loading
Personal Weather Stations






























Interactive Weather Map New forecast layout! Learn more

10-Day Weather Forecast

Advertisements
Track Severe Weather on mobile